EDT,Max TemperatureF,Mean TemperatureF,Min TemperatureF,Max Dew PointF,MeanDew PointF,Min DewpointF,Max Humidity, Mean Humidity, Min Humidity, Max Sea Level PressureIn, Mean Sea Level PressureIn, Min Sea Level PressureIn, Max VisibilityMiles, Mean VisibilityMiles, Min VisibilityMiles, Max Wind SpeedMPH, Mean Wind SpeedMPH, Max Gust SpeedMPH,PrecipitationIn, CloudCover, Events, WindDirDegrees
2013-7-1,78,74,69,70,66,64,83,81,74,30.07,30.00,29.94,10,8,3,7,1,,0.10,7,,177
2013-7-2,82,75,68,70,67,63,83,76,65,30.18,30.11,30.06,10,10,1,15,6,17,0.71,8,Thunderstorm,181
2013-7-3,84,76,68,70,66,63,83,73,58,30.21,30.17,30.13,10,10,5,12,4,,0.70,5,,225
2013-7-4,91,80,69,70,68,64,83,70,49,30.22,30.16,30.09,10,9,1,14,3,21,0.00,3,,203
2013-7-5,91,81,71,72,69,66,83,68,49,30.18,30.11,30.04,10,10,4,13,3,17,0.00,1,,208
2013-7-6,86,76,66,68,64,59,83,66,43,30.11,30.07,30.01,10,10,4,10,2,20,0.00,2,,253
2013-7-7,89,76,62,72,64,57,83,71,52,30.06,30.00,29.92,10,9,5,13,2,,0.00,0,,196
2013-7-8,86,78,69,68,65,63,83,68,48,30.06,29.97,29.93,10,10,5,12,2,,0.06,4,Thunderstorm,280
2013-7-9,80,73,66,66,63,59,83,75,58,30.11,30.07,30.04,10,9,1,9,2,,2.38,6,Thunderstorm,42
2013-7-10,82,76,69,72,66,63,88,77,61,30.05,29.91,29.80,10,7,2,12,3,33,0.57,7,Thunderstorm,182
2013-7-11,82,74,64,68,65,57,83,71,51,29.98,29.85,29.77,10,8,0,14,3,17,0.00,4,,223
2013-7-12,80,70,60,59,56,54,82,64,45,30.21,30.11,29.98,10,10,6,10,2,16,0.00,1,,58
2013-7-13,75,68,60,64,59,54,82,70,53,30.31,30.28,30.21,10,10,8,6,1,,0.00,7,,359
2013-7-14,,,,,,,,,,,,,,,,,,,,,,
2013-7-15,,,,,,,,,,,,,,,,,,,,,,
2013-7-16,89,80,69,68,65,63,78,55,43,30.19,30.16,30.14,10,10,5,14,9,20,0.09,1,,360
2013-7-17,91,78,64,70,65,59,88,65,41,30.21,30.12,30.01,10,8,0,12,2,,0.00,1,,223
2013-7-18,93,81,69,72,67,64,83,64,43,30.03,29.99,29.93,10,9,3,9,1,,0.00,1,Thunderstorm,297
2013-7-19,95,82,69,70,67,63,83,62,44,29.95,29.83,29.72,10,9,3,16,4,25,0.00,1,Thunderstorm,214
2013-7-20,87,76,66,66,62,57,83,63,46,29.84,29.74,29.68,10,10,8,12,3,20,0.00,1,,245
2013-7-21,82,70,59,63,58,54,82,64,45,30.00,29.93,29.84,10,9,0,8,1,,0.00,2,,306
2013-7-22,84,73,62,64,60,55,82,68,48,30.02,29.96,29.87,10,10,5,10,1,16,0.01,5,,81
2013-7-23,78,72,66,66,62,59,83,76,61,29.86,29.66,29.55,10,8,0,12,5,,2.72,6,,354
2013-7-24,78,68,57,64,57,43,88,65,44,30.01,29.74,29.60,10,7,0,16,4,21,0.00,5,,332
2013-7-25,71,60,50,55,49,43,76,62,46,30.10,30.07,30.01,10,10,9,12,4,,0.00,5,,23
2013-7-26,71,66,59,57,55,54,82,73,57,30.07,30.02,29.98,10,10,2,9,2,,0.05,5,,351
2013-7-27,82,68,55,61,55,50,88,67,39,30.07,30.02,29.97,10,6,0,10,2,,0.00,3,,196
2013-7-28,82,70,57,64,59,52,82,68,39,30.01,29.98,29.95,10,8,0,9,2,,0.00,4,,198
2013-7-29,84,74,64,63,60,55,83,64,42,30.08,30.00,29.96,10,10,2,13,2,20,0.00,4,,236
2013-7-30,78,66,53,55,52,48,82,60,36,30.13,30.09,30.05,10,10,5,12,3,16,0.00,2,,302
2013-7-31,80,68,55,59,54,48,82,63,39,30.16,30.09,30.04,10,10,1,8,1,,0.00,2,,252